sensor_id;sensor_type;location;lat;lon;timestamp;pressure;altitude;pressure_sealevel;temperature;humidity
49813;BME280;35706;52.100;5.056;2023-01-31T00:00:29;102534.09;;;3.90;90.72
49813;BME280;35706;52.100;5.056;2023-01-31T00:01:33;102528.53;;;4.01;90.54
49813;BME280;35706;52.100;5.056;2023-01-31T00:02:33;102525.56;;;3.85;90.72
49813;BME280;35706;52.100;5.056;2023-01-31T00:03:34;102530.66;;;3.90;91.02
49813;BME280;35706;52.100;5.056;2023-01-31T00:04:34;102523.13;;;3.80;90.98
49813;BME280;35706;52.100;5.056;2023-01-31T00:05:34;102530.03;;;3.81;91.41
49813;BME280;35706;52.100;5.056;2023-01-31T00:06:41;102531.31;;;3.95;91.01
49813;BME280;35706;52.100;5.056;2023-01-31T00:07:41;102531.78;;;3.81;91.18
49813;BME280;35706;52.100;5.056;2023-01-31T00:08:42;102523.53;;;3.95;90.51
49813;BME280;35706;52.100;5.056;2023-01-31T00:09:46;102520.97;;;3.93;90.39
49813;BME280;35706;52.100;5.056;2023-01-31T00:10:47;102516.75;;;3.89;90.60
49813;BME280;35706;52.100;5.056;2023-01-31T00:11:47;102520.25;;;3.90;90.78
49813;BME280;35706;52.100;5.056;2023-01-31T00:12:47;102525.66;;;3.83;90.95
49813;BME280;35706;52.100;5.056;2023-01-31T00:13:48;102521.88;;;3.92;90.58
49813;BME280;35706;52.100;5.056;2023-01-31T00:14:48;102524.47;;;3.92;90.42
49813;BME280;35706;52.100;5.056;2023-01-31T00:15:48;102521.31;;;3.82;90.82
49813;BME280;35706;52.100;5.056;2023-01-31T00:16:49;102526.69;;;3.78;90.87
49813;BME280;35706;52.100;5.056;2023-01-31T00:17:49;102518.09;;;3.76;91.13
49813;BME280;35706;52.100;5.056;2023-01-31T00:18:49;102519.88;;;3.74;91.22
49813;BME280;35706;52.100;5.056;2023-01-31T00:19:50;102507.63;;;3.77;91.41
49813;BME280;35706;52.100;5.056;2023-01-31T00:20:50;102501.59;;;3.77;91.27
49813;BME280;35706;52.100;5.056;2023-01-31T00:21:52;102504.09;;;3.80;91.32
49813;BME280;35706;52.100;5.056;2023-01-31T00:22:52;102507.63;;;3.77;90.84
49813;BME280;35706;52.100;5.056;2023-01-31T00:23:53;102503.44;;;3.73;91.12
49813;BME280;35706;52.100;5.056;2023-01-31T00:24:54;102504.41;;;3.71;91.38
49813;BME280;35706;52.100;5.056;2023-01-31T00:25:54;102491.28;;;3.74;91.83
49813;BME280;35706;52.100;5.056;2023-01-31T00:26:54;102489.59;;;3.73;91.00
49813;BME280;35706;52.100;5.056;2023-01-31T00:27:57;102493.28;;;3.65;91.11
49813;BME280;35706;52.100;5.056;2023-01-31T00:28:59;102482.78;;;3.69;91.39
49813;BME280;35706;52.100;5.056;2023-01-31T00:30:03;102477.03;;;3.59;91.89
49813;BME280;35706;52.100;5.056;2023-01-31T00:31:03;102472.75;;;3.58;91.79
49813;BME280;35706;52.100;5.056;2023-01-31T00:32:04;102463.19;;;3.58;91.98
49813;BME280;35706;52.100;5.056;2023-01-31T00:33:04;102467.59;;;3.56;91.85
49813;BME280;35706;52.100;5.056;2023-01-31T00:34:04;102462.47;;;3.53;92.28
49813;BME280;35706;52.100;5.056;2023-01-31T00:35:05;102467.78;;;3.50;92.31
49813;BME280;35706;52.100;5.056;2023-01-31T00:36:09;102464.69;;;3.65;92.49
49813;BME280;35706;52.100;5.056;2023-01-31T00:37:09;102461.19;;;3.66;91.43
49813;BME280;35706;52.100;5.056;2023-01-31T00:38:10;102462.06;;;3.65;91.84
49813;BME280;35706;52.100;5.056;2023-01-31T00:39:10;102451.88;;;3.59;91.93
49813;BME280;35706;52.100;5.056;2023-01-31T00:40:10;102455.47;;;3.55;92.06
49813;BME280;35706;52.100;5.056;2023-01-31T00:41:11;102458.34;;;3.47;92.53
49813;BME280;35706;52.100;5.056;2023-01-31T00:42:11;102455.00;;;3.44;92.85
49813;BME280;35706;52.100;5.056;2023-01-31T00:43:11;102454.06;;;3.45;93.11
49813;BME280;35706;52.100;5.056;2023-01-31T00:44:12;102443.47;;;3.51;92.72
49813;BME280;35706;52.100;5.056;2023-01-31T00:45:13;102447.00;;;3.50;92.83
49813;BME280;35706;52.100;5.056;2023-01-31T00:46:13;102443.66;;;3.72;92.72
49813;BME280;35706;52.100;5.056;2023-01-31T00:47:13;102440.66;;;3.84;92.20
49813;BME280;35706;52.100;5.056;2023-01-31T00:48:14;102438.84;;;3.86;91.60
49813;BME280;35706;52.100;5.056;2023-01-31T00:49:14;102432.59;;;3.66;91.83
49813;BME280;35706;52.100;5.056;2023-01-31T00:50:15;102442.44;;;3.57;92.43
49813;BME280;35706;52.100;5.056;2023-01-31T00:51:16;102434.00;;;3.50;92.72
49813;BME280;35706;52.100;5.056;2023-01-31T00:52:16;102440.94;;;3.50;92.40
49813;BME280;35706;52.100;5.056;2023-01-31T00:53:17;102437.41;;;3.52;92.64
49813;BME280;35706;52.100;5.056;2023-01-31T00:54:22;102436.91;;;3.66;92.60
49813;BME280;35706;52.100;5.056;2023-01-31T00:55:22;102435.63;;;3.53;92.53
49813;BME280;35706;52.100;5.056;2023-01-31T00:56:23;102436.06;;;3.65;91.96
49813;BME280;35706;52.100;5.056;2023-01-31T00:57:23;102422.75;;;3.50;92.51
49813;BME280;35706;52.100;5.056;2023-01-31T00:58:24;102428.03;;;3.46;92.84
49813;BME280;35706;52.100;5.056;2023-01-31T00:59:24;102432.50;;;3.43;92.90
49813;BME280;35706;52.100;5.056;2023-01-31T01:00:24;102428.09;;;3.45;93.06
49813;BME280;35706;52.100;5.056;2023-01-31T01:01:26;102433.44;;;3.40;93.26
49813;BME280;35706;52.100;5.056;2023-01-31T01:02:27;102429.84;;;3.44;93.43
49813;BME280;35706;52.100;5.056;2023-01-31T01:03:27;102427.00;;;3.52;92.88
49813;BME280;35706;52.100;5.056;2023-01-31T01:04:28;102433.44;;;3.67;92.58
49813;BME280;35706;52.100;5.056;2023-01-31T01:05:28;102431.22;;;3.81;92.61
49813;BME280;35706;52.100;5.056;2023-01-31T01:06:29;102438.59;;;3.69;91.74
49813;BME280;35706;52.100;5.056;2023-01-31T01:07:29;102435.44;;;3.59;92.33
49813;BME280;35706;52.100;5.056;2023-01-31T01:08:29;102438.63;;;3.40;93.02
49813;BME280;35706;52.100;5.056;2023-01-31T01:09:30;102437.09;;;3.35;93.03
49813;BME280;35706;52.100;5.056;2023-01-31T01:10:31;102438.56;;;3.43;93.05
49813;BME280;35706;52.100;5.056;2023-01-31T01:11:32;102441.31;;;3.64;92.38
49813;BME280;35706;52.100;5.056;2023-01-31T01:12:33;102447.31;;;3.41;92.72
49813;BME280;35706;52.100;5.056;2023-01-31T01:13:34;102448.53;;;3.29;93.16
49813;BME280;35706;52.100;5.056;2023-01-31T01:14:34;102441.78;;;3.23;93.12
49813;BME280;35706;52.100;5.056;2023-01-31T01:15:38;102446.88;;;3.28;93.25
49813;BME280;35706;52.100;5.056;2023-01-31T01:16:38;102443.63;;;3.46;92.78
49813;BME280;35706;52.100;5.056;2023-01-31T01:17:39;102437.31;;;3.29;93.05
49813;BME280;35706;52.100;5.056;2023-01-31T01:18:40;102436.19;;;3.36;93.25
49813;BME280;35706;52.100;5.056;2023-01-31T01:19:43;102439.56;;;3.39;93.00
49813;BME280;35706;52.100;5.056;2023-01-31T01:20:44;102442.63;;;3.51;92.55
49813;BME280;35706;52.100;5.056;2023-01-31T01:21:44;102443.28;;;3.57;92.31
49813;BME280;35706;52.100;5.056;2023-01-31T01:22:44;102435.19;;;3.40;92.27
49813;BME280;35706;52.100;5.056;2023-01-31T01:23:45;102436.47;;;3.53;92.18
49813;BME280;35706;52.100;5.056;2023-01-31T01:24:46;102434.41;;;3.38;92.43
49813;BME280;35706;52.100;5.056;2023-01-31T01:25:47;102430.84;;;3.40;92.44
49813;BME280;35706;52.100;5.056;2023-01-31T01:26:47;102426.59;;;3.38;92.59
49813;BME280;35706;52.100;5.056;2023-01-31T01:27:47;102431.84;;;3.36;92.81
49813;BME280;35706;52.100;5.056;2023-01-31T01:28:48;102430.84;;;3.40;92.74
49813;BME280;35706;52.100;5.056;2023-01-31T01:29:49;102437.22;;;3.30;93.14
49813;BME280;35706;52.100;5.056;2023-01-31T01:30:49;102430.44;;;3.53;92.87
49813;BME280;35706;52.100;5.056;2023-01-31T01:31:50;102432.16;;;3.54;92.49
49813;BME280;35706;52.100;5.056;2023-01-31T01:32:53;102429.16;;;3.39;92.92
49813;BME280;35706;52.100;5.056;2023-01-31T01:33:55;102436.13;;;3.39;93.49
49813;BME280;35706;52.100;5.056;2023-01-31T01:34:56;102434.72;;;3.29;93.71
49813;BME280;35706;52.100;5.056;2023-01-31T01:36:04;102439.16;;;3.25;94.19
49813;BME280;35706;52.100;5.056;2023-01-31T01:37:07;102431.13;;;3.33;93.83
49813;BME280;35706;52.100;5.056;2023-01-31T01:38:11;102434.00;;;3.50;93.70
49813;BME280;35706;52.100;5.056;2023-01-31T01:39:11;102426.09;;;3.53;93.20
49813;BME280;35706;52.100;5.056;2023-01-31T01:40:12;102432.25;;;3.51;93.56
49813;BME280;35706;52.100;5.056;2023-01-31T01:41:13;102431.56;;;3.45;94.12
49813;BME280;35706;52.100;5.056;2023-01-31T01:42:16;102429.03;;;3.42;94.34
49813;BME280;35706;52.100;5.056;2023-01-31T01:43:17;102437.28;;;3.55;94.24
49813;BME280;35706;52.100;5.056;2023-01-31T01:44:55;102437.34;;;3.54;94.31
49813;BME280;35706;52.100;5.056;2023-01-31T01:45:56;102433.69;;;3.59;94.18
49813;BME280;35706;52.100;5.056;2023-01-31T01:46:57;102440.16;;;3.47;94.47
49813;BME280;35706;52.100;5.056;2023-01-31T01:48:02;102444.56;;;3.45;94.99
49813;BME280;35706;52.100;5.056;2023-01-31T01:49:14;102439.84;;;3.57;94.64
49813;BME280;35706;52.100;5.056;2023-01-31T01:51:27;102440.69;;;3.57;94.55
49813;BME280;35706;52.100;5.056;2023-01-31T01:52:30;102444.88;;;3.61;94.89
49813;BME280;35706;52.100;5.056;2023-01-31T01:53:33;102452.59;;;3.64;94.75
49813;BME280;35706;52.100;5.056;2023-01-31T01:54:46;102453.88;;;3.51;95.23
49813;BME280;35706;52.100;5.056;2023-01-31T01:55:54;102446.88;;;3.53;95.98
49813;BME280;35706;52.100;5.056;2023-01-31T01:56:58;102451.06;;;3.57;96.03
49813;BME280;35706;52.100;5.056;2023-01-31T01:58:07;102445.19;;;3.52;96.26
49813;BME280;35706;52.100;5.056;2023-01-31T01:59:13;102445.03;;;3.57;96.37
49813;BME280;35706;52.100;5.056;2023-01-31T02:00:19;102458.22;;;3.51;96.65
49813;BME280;35706;52.100;5.056;2023-01-31T02:01:21;102448.59;;;3.54;96.72
49813;BME280;35706;52.100;5.056;2023-01-31T02:02:24;102443.59;;;3.48;97.19
49813;BME280;35706;52.100;5.056;2023-01-31T02:03:25;102444.59;;;3.44;97.55
49813;BME280;35706;52.100;5.056;2023-01-31T02:04:31;102443.75;;;3.43;97.57
49813;BME280;35706;52.100;5.056;2023-01-31T02:05:36;102445.44;;;3.44;97.86
49813;BME280;35706;52.100;5.056;2023-01-31T02:06:39;102438.28;;;3.51;97.76
49813;BME280;35706;52.100;5.056;2023-01-31T02:07:40;102447.47;;;3.61;97.24
49813;BME280;35706;52.100;5.056;2023-01-31T02:08:41;102444.28;;;3.53;97.72
49813;BME280;35706;52.100;5.056;2023-01-31T02:10:08;102442.69;;;3.49;98.07
49813;BME280;35706;52.100;5.056;2023-01-31T02:11:22;102445.41;;;3.46;98.32
49813;BME280;35706;52.100;5.056;2023-01-31T02:12:23;102434.94;;;3.47;98.35
49813;BME280;35706;52.100;5.056;2023-01-31T02:13:23;102441.78;;;3.50;98.65
49813;BME280;35706;52.100;5.056;2023-01-31T02:14:24;102433.88;;;3.53;98.54
49813;BME280;35706;52.100;5.056;2023-01-31T02:15:26;102438.16;;;3.56;98.49
49813;BME280;35706;52.100;5.056;2023-01-31T02:16:26;102435.56;;;3.56;98.91
49813;BME280;35706;52.100;5.056;2023-01-31T02:17:27;102433.88;;;3.53;98.85
49813;BME280;35706;52.100;5.056;2023-01-31T02:18:27;102439.19;;;3.50;99.37
49813;BME280;35706;52.100;5.056;2023-01-31T02:19:50;102439.03;;;3.55;99.40
49813;BME280;35706;52.100;5.056;2023-01-31T02:22:46;102431.03;;;3.61;99.36
49813;BME280;35706;52.100;5.056;2023-01-31T02:25:43;102431.94;;;3.60;99.62
49813;BME280;35706;52.100;5.056;2023-01-31T02:28:27;102428.31;;;3.64;99.66
49813;BME280;35706;52.100;5.056;2023-01-31T02:34:03;102431.03;;;3.61;100.00
49813;BME280;35706;52.100;5.056;2023-01-31T02:35:27;102430.34;;;3.56;100.00
49813;BME280;35706;52.100;5.056;2023-01-31T02:40:32;102424.91;;;3.62;100.00
49813;BME280;35706;52.100;5.056;2023-01-31T02:44:27;102413.88;;;3.80;100.00
49813;BME280;35706;52.100;5.056;2023-01-31T02:46:13;102407.41;;;3.67;100.00
49813;BME280;35706;52.100;5.056;2023-01-31T02:49:57;102411.88;;;3.63;100.00
49813;BME280;35706;52.100;5.056;2023-01-31T02:51:04;102406.00;;;3.58;100.00
49813;BME280;35706;52.100;5.056;2023-01-31T02:53:59;102405.72;;;3.66;100.00
49813;BME280;35706;52.100;5.056;2023-01-31T02:56:29;102412.72;;;3.64;100.00
49813;BME280;35706;52.100;5.056;2023-01-31T02:57:30;102408.19;;;3.71;100.00
49813;BME280;35706;52.100;5.056;2023-01-31T02:58:34;102410.78;;;3.71;100.00
49813;BME280;35706;52.100;5.056;2023-01-31T02:59:35;102402.97;;;3.71;100.00
49813;BME280;35706;52.100;5.056;2023-01-31T03:00:37;102402.84;;;3.74;100.00
49813;BME280;35706;52.100;5.056;2023-01-31T03:01:46;102415.78;;;3.77;100.00
49813;BME280;35706;52.100;5.056;2023-01-31T03:02:47;102411.25;;;3.82;100.00
49813;BME280;35706;52.100;5.056;2023-01-31T03:03:47;102408.22;;;3.69;100.00
49813;BME280;35706;52.100;5.056;2023-01-31T03:04:48;102408.72;;;3.79;100.00
49813;BME280;35706;52.100;5.056;2023-01-31T03:07:25;102409.53;;;3.81;100.00
49813;BME280;35706;52.100;5.056;2023-01-31T03:08:28;102406.25;;;3.76;100.00
49813;BME280;35706;52.100;5.056;2023-01-31T03:09:35;102408.09;;;3.72;100.00
49813;BME280;35706;52.100;5.056;2023-01-31T03:10:59;102403.53;;;3.79;100.00
49813;BME280;35706;52.100;5.056;2023-01-31T03:12:15;102400.44;;;3.93;100.00
49813;BME280;35706;52.100;5.056;2023-01-31T03:13:27;102409.66;;;3.78;100.00
49813;BME280;35706;52.100;5.056;2023-01-31T03:14:36;102406.19;;;3.77;100.00
49813;BME280;35706;52.100;5.056;2023-01-31T03:17:21;102383.59;;;3.79;100.00
49813;BME280;35706;52.100;5.056;2023-01-31T03:18:45;102396.25;;;3.88;100.00
49813;BME280;35706;52.100;5.056;2023-01-31T03:20:53;102396.25;;;3.88;100.00
49813;BME280;35706;52.100;5.056;2023-01-31T03:22:00;102396.38;;;3.85;100.00
49813;BME280;35706;52.100;5.056;2023-01-31T03:23:07;102393.06;;;3.80;100.00
49813;BME280;35706;52.100;5.056;2023-01-31T03:24:11;102392.97;;;3.83;100.00
49813;BME280;35706;52.100;5.056;2023-01-31T03:25:14;102398.19;;;3.83;100.00
49813;BME280;35706;52.100;5.056;2023-01-31T03:26:16;102395.72;;;3.79;100.00
49813;BME280;35706;52.100;5.056;2023-01-31T03:27:19;102387.88;;;3.80;100.00
49813;BME280;35706;52.100;5.056;2023-01-31T03:28:25;102395.50;;;3.85;100.00
49813;BME280;35706;52.100;5.056;2023-01-31T03:29:28;102388.44;;;3.88;100.00
49813;BME280;35706;52.100;5.056;2023-01-31T03:30:56;102388.41;;;3.90;100.00
49813;BME280;35706;52.100;5.056;2023-01-31T03:32:09;102378.06;;;3.88;100.00
49813;BME280;35706;52.100;5.056;2023-01-31T03:33:26;102382.13;;;3.96;100.00
49813;BME280;35706;52.100;5.056;2023-01-31T03:34:29;102375.91;;;4.00;100.00
49813;BME280;35706;52.100;5.056;2023-01-31T03:35:31;102376.03;;;3.97;100.00
49813;BME280;35706;52.100;5.056;2023-01-31T03:36:54;102381.06;;;4.01;100.00
49813;BME280;35706;52.100;5.056;2023-01-31T03:38:10;102380.09;;;4.04;100.00
49813;BME280;35706;52.100;5.056;2023-01-31T03:40:56;102360.81;;;4.10;100.00
49813;BME280;35706;52.100;5.056;2023-01-31T03:42:02;102363.41;;;4.10;100.00
49813;BME280;35706;52.100;5.056;2023-01-31T03:43:14;102360.69;;;4.13;100.00
49813;BME280;35706;52.100;5.056;2023-01-31T03:44:31;102355.72;;;4.06;100.00
49813;BME280;35706;52.100;5.056;2023-01-31T03:45:41;102357.41;;;4.07;100.00
49813;BME280;35706;52.100;5.056;2023-01-31T03:46:55;102355.59;;;4.10;100.00
49813;BME280;35706;52.100;5.056;2023-01-31T03:47:59;102358.34;;;4.06;100.00
49813;BME280;35706;52.100;5.056;2023-01-31T03:49:05;102366.13;;;4.06;100.00
49813;BME280;35706;52.100;5.056;2023-01-31T03:50:12;102363.53;;;4.06;100.00
49813;BME280;35706;52.100;5.056;2023-01-31T03:51:18;102366.94;;;4.08;100.00
49813;BME280;35706;52.100;5.056;2023-01-31T03:52:30;102356.53;;;4.08;100.00
49813;BME280;35706;52.100;5.056;2023-01-31T03:53:40;102361.59;;;4.12;100.00
49813;BME280;35706;52.100;5.056;2023-01-31T03:54:52;102344.13;;;4.15;100.00
49813;BME280;35706;52.100;5.056;2023-01-31T03:55:58;102350.00;;;4.20;100.00
49813;BME280;35706;52.100;5.056;2023-01-31T03:58:14;102353.63;;;4.16;100.00
49813;BME280;35706;52.100;5.056;2023-01-31T03:59:25;102358.06;;;4.13;100.00
49813;BME280;35706;52.100;5.056;2023-01-31T04:00:27;102350.19;;;4.16;100.00
49813;BME280;35706;52.100;5.056;2023-01-31T04:01:31;102354.81;;;4.07;100.00
49813;BME280;35706;52.100;5.056;2023-01-31T04:02:36;102356.84;;;4.23;100.00
49813;BME280;35706;52.100;5.056;2023-01-31T04:05:02;102345.47;;;4.25;100.00
49813;BME280;35706;52.100;5.056;2023-01-31T04:06:04;102354.06;;;4.27;100.00
49813;BME280;35706;52.100;5.056;2023-01-31T04:07:05;102351.81;;;4.18;100.00
49813;BME280;35706;52.100;5.056;2023-01-31T04:08:05;102356.16;;;4.18;100.00
49813;BME280;35706;52.100;5.056;2023-01-31T04:09:06;102348.38;;;4.18;100.00
49813;BME280;35706;52.100;5.056;2023-01-31T04:10:12;102348.47;;;4.15;100.00
49813;BME280;35706;52.100;5.056;2023-01-31T04:11:14;102359.66;;;4.17;100.00
49813;BME280;35706;52.100;5.056;2023-01-31T04:12:18;102343.22;;;4.16;100.00
49813;BME280;35706;52.100;5.056;2023-01-31T04:13:19;102357.13;;;4.15;100.00
49813;BME280;35706;52.100;5.056;2023-01-31T04:14:21;102349.25;;;4.17;100.00
49813;BME280;35706;52.100;5.056;2023-01-31T04:15:21;102351.94;;;4.15;100.00
49813;BME280;35706;52.100;5.056;2023-01-31T04:16:22;102355.19;;;4.20;100.00
49813;BME280;35706;52.100;5.056;2023-01-31T04:17:22;102351.81;;;4.18;100.00
49813;BME280;35706;52.100;5.056;2023-01-31T04:18:22;102344.84;;;4.19;100.00
49813;BME280;35706;52.100;5.056;2023-01-31T04:19:23;102343.78;;;4.24;100.00
49813;BME280;35706;52.100;5.056;2023-01-31T04:20:23;102335.16;;;4.22;100.00
49813;BME280;35706;52.100;5.056;2023-01-31T04:21:23;102334.19;;;4.25;100.00
49813;BME280;35706;52.100;5.056;2023-01-31T04:22:24;102326.38;;;4.25;100.00
49813;BME280;35706;52.100;5.056;2023-01-31T04:23:24;102323.88;;;4.23;100.00
49813;BME280;35706;52.100;5.056;2023-01-31T04:24:25;102323.69;;;4.28;100.00
49813;BME280;35706;52.100;5.056;2023-01-31T04:25:25;102330.75;;;4.24;100.00
49813;BME280;35706;52.100;5.056;2023-01-31T04:26:26;102332.56;;;4.22;100.00
49813;BME280;35706;52.100;5.056;2023-01-31T04:27:26;102331.50;;;4.28;100.00
49813;BME280;35706;52.100;5.056;2023-01-31T04:28:27;102331.59;;;4.25;100.00
49813;BME280;35706;52.100;5.056;2023-01-31T04:29:27;102332.19;;;4.32;100.00
49813;BME280;35706;52.100;5.056;2023-01-31T04:30:27;102325.31;;;4.31;100.00
49813;BME280;35706;52.100;5.056;2023-01-31T04:31:28;102316.53;;;4.33;100.00
49813;BME280;35706;52.100;5.056;2023-01-31T04:32:28;102320.06;;;4.32;100.00
49813;BME280;35706;52.100;5.056;2023-01-31T04:33:28;102324.25;;;4.36;100.00
49813;BME280;35706;52.100;5.056;2023-01-31T04:34:29;102321.75;;;4.33;100.00
49813;BME280;35706;52.100;5.056;2023-01-31T04:35:29;102318.16;;;4.36;100.00
49813;BME280;35706;52.100;5.056;2023-01-31T04:36:29;102321.78;;;4.32;100.00
49813;BME280;35706;52.100;5.056;2023-01-31T04:37:30;102327.63;;;4.38;100.00
49813;BME280;35706;52.100;5.056;2023-01-31T04:38:30;102326.94;;;4.33;100.00
49813;BME280;35706;52.100;5.056;2023-01-31T04:39:30;102317.47;;;4.32;100.00
49813;BME280;35706;52.100;5.056;2023-01-31T04:40:30;102328.66;;;4.34;100.00
49813;BME280;35706;52.100;5.056;2023-01-31T04:41:31;102340.81;;;4.34;100.00
49813;BME280;35706;52.100;5.056;2023-01-31T04:42:31;102329.56;;;4.33;100.00
49813;BME280;35706;52.100;5.056;2023-01-31T04:43:32;102318.47;;;4.28;100.00
49813;BME280;35706;52.100;5.056;2023-01-31T04:44:32;102314.91;;;4.31;100.00
49813;BME280;35706;52.100;5.056;2023-01-31T04:45:32;102313.13;;;4.31;100.00
49813;BME280;35706;52.100;5.056;2023-01-31T04:46:33;102320.84;;;4.34;100.00
49813;BME280;35706;52.100;5.056;2023-01-31T04:47:33;102321.69;;;4.35;100.00
49813;BME280;35706;52.100;5.056;2023-01-31T04:48:34;102315.69;;;4.33;100.00
49813;BME280;35706;52.100;5.056;2023-01-31T04:49:34;102313.94;;;4.33;100.00
49813;BME280;35706;52.100;5.056;2023-01-31T04:50:35;102312.06;;;4.37;100.00
49813;BME280;35706;52.100;5.056;2023-01-31T04:51:35;102305.88;;;4.39;100.00
49813;BME280;35706;52.100;5.056;2023-01-31T04:52:35;102311.88;;;4.41;100.00
49813;BME280;35706;52.100;5.056;2023-01-31T04:53:36;102311.94;;;4.40;100.00
49813;BME280;35706;52.100;5.056;2023-01-31T04:54:36;102298.22;;;4.36;100.00
49813;BME280;35706;52.100;5.056;2023-01-31T04:55:37;102308.38;;;4.42;100.00
49813;BME280;35706;52.100;5.056;2023-01-31T04:56:37;102316.13;;;4.44;100.00
49813;BME280;35706;52.100;5.056;2023-01-31T04:57:37;102311.88;;;4.41;100.00
49813;BME280;35706;52.100;5.056;2023-01-31T04:58:38;102310.06;;;4.43;100.00
49813;BME280;35706;52.100;5.056;2023-01-31T04:59:40;102309.16;;;4.44;100.00
49813;BME280;35706;52.100;5.056;2023-01-31T05:00:40;102316.25;;;4.41;100.00
49813;BME280;35706;52.100;5.056;2023-01-31T05:01:41;102322.91;;;4.48;100.00
49813;BME280;35706;52.100;5.056;2023-01-31T05:02:41;102310.84;;;4.45;100.00
49813;BME280;35706;52.100;5.056;2023-01-31T05:03:41;102318.78;;;4.42;100.00
49813;BME280;35706;52.100;5.056;2023-01-31T05:04:42;102311.75;;;4.44;100.00
49813;BME280;35706;52.100;5.056;2023-01-31T05:05:42;102309.94;;;4.46;100.00
49813;BME280;35706;52.100;5.056;2023-01-31T05:06:42;102305.59;;;4.47;100.00
49813;BME280;35706;52.100;5.056;2023-01-31T05:07:43;102307.41;;;4.45;100.00
49813;BME280;35706;52.100;5.056;2023-01-31T05:08:44;102311.03;;;4.41;100.00
49813;BME280;35706;52.100;5.056;2023-01-31T05:09:44;102301.47;;;4.41;100.00
49813;BME280;35706;52.100;5.056;2023-01-31T05:10:45;102313.69;;;4.39;100.00
49813;BME280;35706;52.100;5.056;2023-01-31T05:11:45;102306.63;;;4.43;100.00
49813;BME280;35706;52.100;5.056;2023-01-31T05:12:48;102311.88;;;4.41;100.00
49813;BME280;35706;52.100;5.056;2023-01-31T05:13:51;102315.41;;;4.40;100.00
49813;BME280;35706;52.100;5.056;2023-01-31T05:14:51;102301.47;;;4.41;100.00
49813;BME280;35706;52.100;5.056;2023-01-31T05:15:52;102310.84;;;4.45;100.00
49813;BME280;35706;52.100;5.056;2023-01-31T05:16:53;102299.50;;;4.46;100.00
49813;BME280;35706;52.100;5.056;2023-01-31T05:17:53;102296.13;;;4.44;100.00
49813;BME280;35706;52.100;5.056;2023-01-31T05:19:01;102298.63;;;4.47;100.00
49813;BME280;35706;52.100;5.056;2023-01-31T05:20:02;102299.50;;;4.46;100.00
49813;BME280;35706;52.100;5.056;2023-01-31T05:21:04;102296.91;;;4.46;100.00
49813;BME280;35706;52.100;5.056;2023-01-31T05:22:05;102296.91;;;4.46;100.00
49813;BME280;35706;52.100;5.056;2023-01-31T05:23:06;102298.50;;;4.51;100.00
49813;BME280;35706;52.100;5.056;2023-01-31T05:24:07;102293.97;;;4.56;100.00
49813;BME280;35706;52.100;5.056;2023-01-31T05:25:07;102287.22;;;4.50;100.00
49813;BME280;35706;52.100;5.056;2023-01-31T05:26:07;102284.69;;;4.48;100.00
49813;BME280;35706;52.100;5.056;2023-01-31T05:27:08;102293.28;;;4.51;100.00
49813;BME280;35706;52.100;5.056;2023-01-31T05:28:10;102287.19;;;4.52;100.00
49813;BME280;35706;52.100;5.056;2023-01-31T05:29:10;102293.22;;;4.52;100.00
49813;BME280;35706;52.100;5.056;2023-01-31T05:30:11;102302.75;;;4.53;100.00
49813;BME280;35706;52.100;5.056;2023-01-31T05:31:11;102288.84;;;4.53;100.00
49813;BME280;35706;52.100;5.056;2023-01-31T05:32:13;102292.25;;;4.55;100.00
49813;BME280;35706;52.100;5.056;2023-01-31T05:33:13;102297.41;;;4.56;100.00
49813;BME280;35706;52.100;5.056;2023-01-31T05:34:14;102288.56;;;4.60;100.00
49813;BME280;35706;52.100;5.056;2023-01-31T05:35:15;102291.16;;;4.60;100.00
49813;BME280;35706;52.100;5.056;2023-01-31T05:36:15;102294.06;;;4.53;100.00
49813;BME280;35706;52.100;5.056;2023-01-31T05:37:15;102288.75;;;4.56;100.00
49813;BME280;35706;52.100;5.056;2023-01-31T05:38:16;102298.19;;;4.58;100.00
49813;BME280;35706;52.100;5.056;2023-01-31T05:39:16;102293.13;;;4.55;100.00
49813;BME280;35706;52.100;5.056;2023-01-31T05:40:17;102290.56;;;4.54;100.00
49813;BME280;35706;52.100;5.056;2023-01-31T05:41:17;102299.13;;;4.57;100.00
49813;BME280;35706;52.100;5.056;2023-01-31T05:42:17;102289.72;;;4.53;100.00
49813;BME280;35706;52.100;5.056;2023-01-31T05:43:18;102279.19;;;4.56;100.00
49813;BME280;35706;52.100;5.056;2023-01-31T05:44:18;102277.34;;;4.58;100.00
49813;BME280;35706;52.100;5.056;2023-01-31T05:45:19;102282.63;;;4.57;100.00
49813;BME280;35706;52.100;5.056;2023-01-31T05:46:19;102279.22;;;4.55;100.00
49813;BME280;35706;52.100;5.056;2023-01-31T05:47:20;102268.94;;;4.52;100.00
49813;BME280;35706;52.100;5.056;2023-01-31T05:48:22;102290.44;;;4.57;100.00
49813;BME280;35706;52.100;5.056;2023-01-31T05:49:22;102266.94;;;4.58;100.00
49813;BME280;35706;52.100;5.056;2023-01-31T05:50:23;102273.78;;;4.61;100.00
49813;BME280;35706;52.100;5.056;2023-01-31T05:51:23;102266.75;;;4.63;100.00
49813;BME280;35706;52.100;5.056;2023-01-31T05:52:23;102278.28;;;4.57;100.00
49813;BME280;35706;52.100;5.056;2023-01-31T05:53:24;102277.22;;;4.61;100.00
49813;BME280;35706;52.100;5.056;2023-01-31T05:54:24;102273.00;;;4.59;100.00
49813;BME280;35706;52.100;5.056;2023-01-31T05:55:25;102277.22;;;4.61;100.00
49813;BME280;35706;52.100;5.056;2023-01-31T05:56:26;102279.72;;;4.64;100.00
49813;BME280;35706;52.100;5.056;2023-01-31T05:57:26;102288.63;;;4.59;100.00
49813;BME280;35706;52.100;5.056;2023-01-31T05:58:27;102287.47;;;4.66;100.00
49813;BME280;35706;52.100;5.056;2023-01-31T05:59:27;102277.84;;;4.68;100.00
49813;BME280;35706;52.100;5.056;2023-01-31T06:00:30;102281.59;;;4.61;100.00
49813;BME280;35706;52.100;5.056;2023-01-31T06:01:30;102275.25;;;4.68;100.00
49813;BME280;35706;52.100;5.056;2023-01-31T06:02:31;102284.63;;;4.72;100.00
49813;BME280;35706;52.100;5.056;2023-01-31T06:03:32;102279.56;;;4.67;100.00